createdAt,value
2019-04-27T00:00:22.605Z,7.7
2019-04-27T00:01:31.500Z,7.7
2019-04-27T00:02:06.102Z,7.7
2019-04-27T00:02:40.704Z,7.7
2019-04-27T00:03:15.309Z,7.7
2019-04-27T00:03:49.917Z,7.7
2019-04-27T00:05:35.452Z,7.7
2019-04-27T00:06:08.867Z,7.7
2019-04-27T00:06:46.356Z,7.8
2019-04-27T00:07:21.119Z,7.8
2019-04-27T00:08:33.339Z,7.8
2019-04-27T00:09:07.463Z,7.8
2019-04-27T00:09:49.952Z,7.8
2019-04-27T00:10:20.346Z,7.8
2019-04-27T00:10:55.474Z,7.8
2019-04-27T00:12:05.621Z,7.8
2019-04-27T00:12:40.492Z,7.8
2019-04-27T00:13:16.136Z,7.9
2019-04-27T00:13:50.766Z,7.8
2019-04-27T00:15:03.366Z,7.8
2019-04-27T00:15:38.751Z,7.8
2019-04-27T00:16:14.917Z,7.8
2019-04-27T00:16:53.480Z,7.8
2019-04-27T00:18:03.480Z,7.7
2019-04-27T00:18:37.002Z,7.7
2019-04-27T00:19:13.119Z,7.7
2019-04-27T00:19:46.736Z,7.8
2019-04-27T00:20:23.916Z,7.8
2019-04-27T00:21:34.743Z,7.8
2019-04-27T00:22:10.387Z,7.8
2019-04-27T00:22:46.056Z,7.8
2019-04-27T00:23:21.707Z,7.8
2019-04-27T00:24:33.510Z,7.7
2019-04-27T00:25:06.554Z,7.7
2019-04-27T00:25:41.173Z,7.7
2019-04-27T00:26:15.759Z,7.8
2019-04-27T00:26:51.435Z,7.8
2019-04-27T00:28:03.509Z,7.8
2019-04-27T00:28:38.895Z,7.8
2019-04-27T00:29:14.574Z,7.8
2019-04-27T00:29:50.766Z,7.8
2019-04-27T00:31:03.286Z,7.8
2019-04-27T00:31:38.723Z,7.8
2019-04-27T00:32:14.914Z,7.8
2019-04-27T00:32:50.535Z,7.8
2019-04-27T00:34:03.554Z,7.8
2019-04-27T00:34:38.551Z,7.8
2019-04-27T00:35:14.717Z,7.8
2019-04-27T00:35:50.938Z,7.8
2019-04-27T00:37:03.677Z,7.8
2019-04-27T00:37:38.910Z,7.8
2019-04-27T00:38:14.687Z,7.8
2019-04-27T00:38:50.730Z,7.8
2019-04-27T00:40:03.446Z,7.8
2019-04-27T00:40:38.751Z,7.8
2019-04-27T00:41:14.910Z,7.8
2019-04-27T00:41:50.573Z,7.8
2019-04-27T00:43:38.597Z,7.7
2019-04-27T00:44:13.713Z,7.7
2019-04-27T00:44:48.851Z,7.7
2019-04-27T00:45:23.964Z,7.7
2019-04-27T00:46:33.173Z,7.7
2019-04-27T00:47:07.758Z,7.7
2019-04-27T00:47:54.425Z,7.7
2019-04-27T00:48:16.452Z,7.7
2019-04-27T00:48:51.058Z,7.7
2019-04-27T00:49:26.446Z,7.7
2019-04-27T00:50:34.855Z,7.7
2019-04-27T00:51:09.458Z,7.7
2019-04-27T00:51:44.061Z,7.7
2019-04-27T00:52:18.680Z,7.7
2019-04-27T00:52:53.290Z,7.7
2019-04-27T00:54:02.501Z,7.7
2019-04-27T00:54:37.065Z,7.7
2019-04-27T00:55:13.260Z,7.7
2019-04-27T00:55:46.268Z,7.7
2019-04-27T00:56:20.930Z,7.7
2019-04-27T00:56:55.493Z,7.7
2019-04-27T00:58:40.370Z,7.7
2019-04-27T00:59:15.501Z,7.7
2019-04-27T00:59:50.595Z,7.7
2019-04-27T01:00:25.793Z,7.7
2019-04-27T01:01:01.450Z,7.7
2019-04-27T01:01:35.454Z,7.7
2019-04-27T01:02:10.674Z,7.7
2019-04-27T01:02:45.727Z,7.7
2019-04-27T01:03:20.841Z,7.8
2019-04-27T01:04:31.625Z,7.8
2019-04-27T01:05:07.309Z,7.7
2019-04-27T01:05:43.030Z,7.7
2019-04-27T01:06:16.472Z,7.7
2019-04-27T01:06:51.074Z,7.7
2019-04-27T01:07:25.671Z,7.7
2019-04-27T01:08:34.883Z,7.7
2019-04-27T01:09:09.495Z,7.7
2019-04-27T01:09:44.105Z,7.7
2019-04-27T01:10:18.740Z,7.7
2019-04-27T01:10:53.734Z,7.7
2019-04-27T01:12:03.576Z,7.7
2019-04-27T01:12:38.021Z,7.7
2019-04-27T01:13:13.212Z,7.7
2019-04-27T01:13:46.328Z,7.7
2019-04-27T01:14:20.936Z,7.7
2019-04-27T01:14:55.702Z,7.8
2019-04-27T01:16:08.424Z,7.8
2019-04-27T01:16:42.473Z,7.8
2019-04-27T01:17:18.883Z,7.7
2019-04-27T01:17:52.749Z,7.7
2019-04-27T01:19:02.982Z,7.7
2019-04-27T01:19:39.057Z,7.7
2019-04-27T01:20:12.704Z,7.7
2019-04-27T01:20:48.886Z,7.7
2019-04-27T01:21:22.968Z,7.7
2019-04-27T01:22:32.729Z,7.6
2019-04-27T01:23:10.751Z,7.6
2019-04-27T01:23:45.059Z,7.6
2019-04-27T01:24:20.705Z,7.6
2019-04-27T01:25:33.078Z,7.6
2019-04-27T01:26:09.716Z,7.5
2019-04-27T01:26:43.829Z,7.5
2019-04-27T01:27:19.040Z,7.5
2019-04-27T01:27:53.559Z,7.5
2019-04-27T01:29:03.812Z,7.5
2019-04-27T01:29:39.216Z,7.5
2019-04-27T01:30:13.543Z,7.5
2019-04-27T01:30:49.016Z,7.5
2019-04-27T01:31:23.816Z,7.5
2019-04-27T01:32:33.990Z,7.5
2019-04-27T01:33:09.727Z,7.5
2019-04-27T01:33:44.216Z,7.5
2019-04-27T01:34:19.254Z,7.5
2019-04-27T01:34:54.067Z,7.5
2019-04-27T01:36:04.823Z,7.4
2019-04-27T01:36:41.000Z,7.4
2019-04-27T01:37:16.679Z,7.4
2019-04-27T01:37:52.848Z,7.4
2019-04-27T01:39:03.636Z,7.5
2019-04-27T01:39:38.797Z,7.5
2019-04-27T01:40:13.321Z,7.5
2019-04-27T01:40:49.636Z,7.5
2019-04-27T01:41:22.552Z,7.5
2019-04-27T01:42:31.738Z,7.5
2019-04-27T01:43:06.344Z,7.4
2019-04-27T01:43:42.004Z,7.5
2019-04-27T01:44:16.625Z,7.5
2019-04-27T01:44:51.864Z,7.5
2019-04-27T01:45:26.338Z,7.5
2019-04-27T01:46:01.534Z,7.5
2019-04-27T01:46:36.591Z,7.5
2019-04-27T01:47:11.720Z,7.5
2019-04-27T01:47:46.326Z,7.5
2019-04-27T01:48:25.167Z,7.5
2019-04-27T01:48:56.069Z,7.5
2019-04-27T01:50:05.253Z,7.5
2019-04-27T01:50:39.868Z,7.5
2019-04-27T01:51:14.502Z,7.5
2019-04-27T01:51:49.318Z,7.5
2019-04-27T01:52:23.688Z,7.4
2019-04-27T01:53:34.973Z,7.4
2019-04-27T01:54:10.621Z,7.4
2019-04-27T01:54:46.279Z,7.4
2019-04-27T01:55:21.415Z,7.4
2019-04-27T01:55:59.161Z,7.4
2019-04-27T01:56:32.727Z,7.4
2019-04-27T01:57:08.356Z,7.4
2019-04-27T01:57:44.016Z,7.4
2019-04-27T01:58:20.105Z,7.4
2019-04-27T01:58:55.300Z,7.4
2019-04-27T02:00:07.144Z,7.4
2019-04-27T02:00:42.777Z,7.4
2019-04-27T02:01:18.745Z,7.4
2019-04-27T02:01:54.083Z,7.4
2019-04-27T02:03:05.401Z,7.4
2019-04-27T02:03:40.533Z,7.4
2019-04-27T02:04:16.190Z,7.4
2019-04-27T02:04:51.827Z,7.4
2019-04-27T02:05:29.010Z,7.4
2019-04-27T02:06:03.150Z,7.4
2019-04-27T02:06:39.006Z,7.4
2019-04-27T02:07:14.435Z,7.4
2019-04-27T02:07:50.094Z,7.5
2019-04-27T02:08:24.691Z,7.4
2019-04-27T02:09:00.345Z,7.4
2019-04-27T02:09:36.541Z,7.5
2019-04-27T02:10:11.678Z,7.5
2019-04-27T02:10:46.252Z,7.5
2019-04-27T02:11:21.373Z,7.5
2019-04-27T02:11:56.520Z,7.5
2019-04-27T02:12:31.619Z,7.5
2019-04-27T02:13:06.252Z,7.5
2019-04-27T02:13:41.366Z,7.5
2019-04-27T02:14:16.507Z,7.5
2019-04-27T02:14:51.624Z,7.5
2019-04-27T02:15:26.202Z,7.4
2019-04-27T02:16:02.391Z,7.5
2019-04-27T02:16:38.963Z,7.4
2019-04-27T02:17:13.694Z,7.4
2019-04-27T02:17:50.891Z,7.4
2019-04-27T02:18:35.416Z,7.4
2019-04-27T02:19:01.694Z,7.4
2019-04-27T02:19:38.797Z,7.4
2019-04-27T02:20:13.519Z,7.4
2019-04-27T02:20:49.703Z,7.4
2019-04-27T02:21:25.384Z,7.4
2019-04-27T02:22:01.576Z,7.4
2019-04-27T02:22:38.435Z,7.4
2019-04-27T02:23:13.365Z,7.4
2019-04-27T02:23:49.763Z,7.4
2019-04-27T02:24:25.729Z,7.4
2019-04-27T02:25:01.361Z,7.3
2019-04-27T02:25:36.486Z,7.3
2019-04-27T02:26:11.621Z,7.3
2019-04-27T02:26:46.217Z,7.2
2019-04-27T02:27:22.425Z,7.2
2019-04-27T02:28:34.355Z,7.2
2019-04-27T02:29:10.414Z,7.2
2019-04-27T02:29:46.565Z,7.2
2019-04-27T02:30:22.301Z,7.2
2019-04-27T02:31:34.579Z,7.2
2019-04-27T02:32:10.719Z,7.2
2019-04-27T02:32:46.395Z,7.2
2019-04-27T02:33:22.582Z,7.2
2019-04-27T02:33:59.513Z,7.2
2019-04-27T02:34:34.392Z,7.2
2019-04-27T02:35:10.587Z,7.2
2019-04-27T02:35:46.247Z,7.2
2019-04-27T02:36:22.415Z,7.2
2019-04-27T02:36:59.432Z,7.2
2019-04-27T02:37:34.256Z,7.2
2019-04-27T02:38:10.442Z,7.2
2019-04-27T02:38:46.605Z,7.2
2019-04-27T02:39:22.249Z,7.2
2019-04-27T02:39:59.961Z,7.2
2019-04-27T02:40:34.615Z,7.2
2019-04-27T02:41:10.324Z,7.2
2019-04-27T02:41:46.463Z,7.2
2019-04-27T02:42:22.616Z,7.3
2019-04-27T02:42:57.219Z,7.3
2019-04-27T02:43:32.351Z,7.3
2019-04-27T02:44:09.463Z,7.3
2019-04-27T02:44:42.602Z,7.3
2019-04-27T02:45:19.545Z,7.3
2019-04-27T02:45:52.321Z,7.3
2019-04-27T02:46:28.847Z,7.3
2019-04-27T02:47:01.541Z,7.3
2019-04-27T02:47:36.121Z,7.3
2019-04-27T02:48:10.722Z,7.2
2019-04-27T02:48:56.514Z,7.2
2019-04-27T02:49:22.029Z,7.2
2019-04-27T02:49:57.666Z,7.2
2019-04-27T02:50:33.342Z,7.2
2019-04-27T02:51:10.218Z,7.2
2019-04-27T02:51:44.127Z,7.2
2019-04-27T02:52:20.077Z,7.2
2019-04-27T02:52:55.429Z,7.2
2019-04-27T02:54:06.713Z,7.2
2019-04-27T02:54:42.348Z,7.2
2019-04-27T02:55:19.706Z,7.2
2019-04-27T02:55:53.676Z,7.1
2019-04-27T02:56:30.471Z,7.1
2019-04-27T02:57:02.915Z,7.1
2019-04-27T02:57:39.744Z,7.1
2019-04-27T02:58:12.906Z,7.1
2019-04-27T02:58:48.942Z,7.1
2019-04-27T02:59:21.283Z,7.1
2019-04-27T02:59:55.895Z,7.1
2019-04-27T03:01:05.096Z,7.1
2019-04-27T03:01:45.762Z,7.1
2019-04-27T03:02:13.799Z,7.1
2019-04-27T03:02:51.015Z,7.1
2019-04-27T03:03:23.505Z,7.1
2019-04-27T03:04:00.186Z,7.1
2019-04-27T03:04:33.769Z,7.1
2019-04-27T03:05:10.851Z,7.1
2019-04-27T03:05:43.496Z,7.1
2019-04-27T03:06:19.833Z,7.1
2019-04-27T03:06:53.769Z,7.1
2019-04-27T03:07:30.113Z,7.1
2019-04-27T03:08:03.488Z,7.1
2019-04-27T03:09:13.718Z,7.1
2019-04-27T03:09:50.935Z,7.1
2019-04-27T03:10:23.465Z,7.1
2019-04-27T03:11:00.887Z,7.1
2019-04-27T03:11:33.717Z,7.1
2019-04-27T03:12:10.152Z,7.0
2019-04-27T03:12:44.618Z,7.0
2019-04-27T03:13:20.679Z,7.0
2019-04-27T03:13:59.657Z,7.0
2019-04-27T03:14:36.002Z,7.0
2019-04-27T03:15:10.319Z,7.0
2019-04-27T03:15:44.870Z,7.0
2019-04-27T03:16:20.523Z,7.0
2019-04-27T03:16:55.626Z,7.0
2019-04-27T03:17:31.413Z,7.0
2019-04-27T03:18:06.927Z,7.0
2019-04-27T03:18:42.594Z,7.0
2019-04-27T03:19:21.483Z,7.0
2019-04-27T03:19:53.901Z,7.0
2019-04-27T03:20:30.126Z,7.0
2019-04-27T03:21:05.220Z,7.0
2019-04-27T03:21:40.327Z,7.0
2019-04-27T03:22:15.975Z,7.0
2019-04-27T03:22:51.623Z,6.9
2019-04-27T03:23:26.221Z,6.9
2019-04-27T03:24:02.031Z,6.9
2019-04-27T03:24:35.456Z,6.9
2019-04-27T03:25:44.638Z,6.9
2019-04-27T03:26:19.649Z,6.9
2019-04-27T03:26:53.832Z,6.9
2019-04-27T03:27:30.321Z,6.9
2019-04-27T03:28:04.156Z,6.9
2019-04-27T03:28:40.097Z,6.9
2019-04-27T03:29:13.826Z,6.9
2019-04-27T03:29:49.836Z,6.9
2019-04-27T03:30:24.081Z,6.9
2019-04-27T03:31:02.341Z,6.9
2019-04-27T03:31:33.827Z,6.9
2019-04-27T03:32:12.434Z,6.9
2019-04-27T03:32:44.073Z,6.9
2019-04-27T03:33:22.141Z,6.9
2019-04-27T03:33:58.535Z,6.9
2019-04-27T03:34:31.972Z,6.9
2019-04-27T03:35:03.525Z,6.9
2019-04-27T03:35:37.377Z,6.8
2019-04-27T03:36:13.245Z,6.8
2019-04-27T03:36:49.251Z,6.8
2019-04-27T03:37:24.041Z,6.8
2019-04-27T03:38:34.309Z,6.9
2019-04-27T03:39:10.085Z,6.9
2019-04-27T03:39:43.495Z,6.9
2019-04-27T03:40:20.292Z,6.9
2019-04-27T03:40:52.922Z,6.9
2019-04-27T03:41:29.231Z,6.8
2019-04-27T03:42:03.487Z,6.8
2019-04-27T03:42:40.224Z,6.8
2019-04-27T03:43:15.306Z,6.8
2019-04-27T03:43:51.477Z,6.8
2019-04-27T03:44:29.512Z,6.8
2019-04-27T03:45:03.335Z,6.8
2019-04-27T03:45:40.043Z,6.8
2019-04-27T03:46:15.657Z,6.8
2019-04-27T03:46:51.320Z,6.8
2019-04-27T03:47:30.312Z,6.8
2019-04-27T03:48:03.666Z,6.8
2019-04-27T03:48:40.657Z,6.8
2019-04-27T03:49:29.115Z,6.8
2019-04-27T03:49:51.687Z,6.8
2019-04-27T03:50:29.790Z,6.8
2019-04-27T03:51:03.507Z,6.7
2019-04-27T03:52:13.749Z,6.7
2019-04-27T03:52:50.023Z,6.7
2019-04-27T03:53:23.489Z,6.7
2019-04-27T03:54:00.372Z,6.7
2019-04-27T03:54:33.732Z,6.7
2019-04-27T03:55:43.457Z,6.7
2019-04-27T03:56:19.996Z,6.7
2019-04-27T03:56:53.735Z,6.7
2019-04-27T03:57:29.706Z,6.7
2019-04-27T03:58:03.460Z,6.7
2019-04-27T03:58:39.563Z,6.7
2019-04-27T03:59:13.719Z,6.7
2019-04-27T03:59:50.590Z,6.7
2019-04-27T04:00:22.930Z,6.8
2019-04-27T04:01:00.011Z,6.8
2019-04-27T04:02:10.934Z,6.7
2019-04-27T04:02:46.052Z,6.7
2019-04-27T04:03:21.172Z,6.7
2019-04-27T04:03:56.321Z,6.7
2019-04-27T04:05:06.049Z,6.7
2019-04-27T04:05:41.200Z,6.7
2019-04-27T04:06:16.288Z,6.7
2019-04-27T04:06:50.903Z,6.7
2019-04-27T04:07:26.008Z,6.7
2019-04-27T04:08:02.281Z,6.7
2019-04-27T04:08:36.263Z,6.7
2019-04-27T04:09:10.865Z,6.7
2019-04-27T04:09:46.013Z,6.7
2019-04-27T04:10:21.145Z,6.7
2019-04-27T04:10:56.277Z,6.7
2019-04-27T04:11:31.386Z,6.7
2019-04-27T04:12:05.469Z,6.7
2019-04-27T04:13:14.655Z,6.7
2019-04-27T04:13:49.499Z,6.7
2019-04-27T04:14:23.886Z,6.7
2019-04-27T04:14:59.765Z,6.7
2019-04-27T04:15:33.076Z,6.7
2019-04-27T04:16:08.582Z,6.7
2019-04-27T04:16:42.293Z,6.7
2019-04-27T04:17:16.890Z,6.7
2019-04-27T04:17:51.494Z,6.7
2019-04-27T04:18:26.087Z,6.7
2019-04-27T04:19:01.843Z,6.7
2019-04-27T04:19:48.713Z,6.7
2019-04-27T04:20:44.496Z,6.7
2019-04-27T04:21:19.479Z,6.7
2019-04-27T04:21:53.720Z,6.7
2019-04-27T04:22:30.166Z,6.7
2019-04-27T04:23:03.481Z,6.7
2019-04-27T04:23:37.547Z,6.7
2019-04-27T04:24:12.538Z,6.7
2019-04-27T04:24:46.739Z,6.7
2019-04-27T04:25:21.321Z,6.7
2019-04-27T04:25:55.950Z,6.7
2019-04-27T04:26:32.626Z,6.7
2019-04-27T04:27:05.141Z,6.7
2019-04-27T04:28:15.384Z,6.6
2019-04-27T04:28:51.045Z,6.6
2019-04-27T04:29:26.695Z,6.6
2019-04-27T04:30:04.041Z,6.6
2019-04-27T04:31:14.689Z,6.6
2019-04-27T04:31:50.867Z,6.6
2019-04-27T04:32:29.471Z,6.6
2019-04-27T04:34:14.009Z,6.6
2019-04-27T04:34:50.228Z,6.7
2019-04-27T04:35:24.274Z,6.7
2019-04-27T04:35:59.687Z,6.7
2019-04-27T04:37:43.722Z,6.8
2019-04-27T04:38:20.519Z,6.8
2019-04-27T04:38:54.502Z,6.8
2019-04-27T04:39:30.690Z,6.9
2019-04-27T04:41:15.527Z,6.9
2019-04-27T04:41:51.043Z,6.9
2019-04-27T04:42:25.787Z,6.9
2019-04-27T04:43:03.137Z,6.9
2019-04-27T04:44:45.779Z,6.9
2019-04-27T04:45:20.887Z,6.9
2019-04-27T04:45:55.497Z,6.9
2019-04-27T04:46:30.636Z,6.9
2019-04-27T04:48:14.986Z,6.9
2019-04-27T04:48:50.304Z,6.9
2019-04-27T04:49:24.157Z,6.9
2019-04-27T04:50:08.349Z,6.9
2019-04-27T04:51:43.613Z,7.0
2019-04-27T04:52:19.666Z,7.0
2019-04-27T04:52:53.889Z,7.0
2019-04-27T04:53:29.645Z,7.0
2019-04-27T04:55:16.481Z,6.9
2019-04-27T04:55:51.110Z,7.0
2019-04-27T04:56:26.733Z,7.0
2019-04-27T04:57:01.875Z,7.0
2019-04-27T04:58:13.181Z,7.0
2019-04-27T04:58:49.700Z,7.0
2019-04-27T04:59:24.466Z,7.0
2019-04-27T05:00:00.162Z,7.1
2019-04-27T05:01:45.510Z,7.0
2019-04-27T05:02:21.160Z,7.1
2019-04-27T05:02:56.284Z,7.1
2019-04-27T05:03:31.442Z,7.1
2019-04-27T05:05:16.274Z,7.1
2019-04-27T05:05:51.427Z,7.1
2019-04-27T05:06:26.029Z,7.1
2019-04-27T05:07:01.141Z,7.2
2019-04-27T05:08:13.480Z,7.2
2019-04-27T05:08:49.365Z,7.2
2019-04-27T05:09:24.271Z,7.2
2019-04-27T05:09:59.934Z,7.3
2019-04-27T05:11:43.726Z,7.3
2019-04-27T05:12:19.084Z,7.3
2019-04-27T05:12:54.030Z,7.3
2019-04-27T05:13:29.628Z,7.3
2019-04-27T05:15:16.069Z,7.4
2019-04-27T05:15:51.723Z,7.4
2019-04-27T05:16:28.607Z,7.4
2019-04-27T05:18:14.331Z,7.4
2019-04-27T05:18:49.996Z,7.5
2019-04-27T05:19:24.579Z,7.5
2019-04-27T05:19:59.184Z,7.5
2019-04-27T05:21:43.541Z,7.6
2019-04-27T05:22:19.577Z,7.6
2019-04-27T05:22:54.825Z,7.6
2019-04-27T05:23:30.997Z,7.6
2019-04-27T05:24:43.470Z,7.6
2019-04-27T05:25:18.653Z,7.6
2019-04-27T05:25:54.652Z,7.6
2019-04-27T05:26:30.299Z,7.6
2019-04-27T05:27:42.660Z,7.7
2019-04-27T05:28:18.688Z,7.7
2019-04-27T05:28:52.388Z,7.8
2019-04-27T05:29:29.249Z,7.8
2019-04-27T05:31:14.459Z,7.9
2019-04-27T05:31:49.200Z,8.0
2019-04-27T05:32:24.737Z,8.0
2019-04-27T05:33:00.891Z,8.0
2019-04-27T05:34:12.729Z,8.0
2019-04-27T05:34:49.489Z,8.0
2019-04-27T05:35:25.064Z,8.0
2019-04-27T05:36:00.728Z,8.1
2019-04-27T05:37:44.436Z,8.2
2019-04-27T05:38:19.646Z,8.2
2019-04-27T05:38:55.358Z,8.3
2019-04-27T05:39:30.437Z,8.3
2019-04-27T05:41:15.290Z,8.4
2019-04-27T05:41:51.453Z,8.4
2019-04-27T05:42:28.607Z,8.4
2019-04-27T05:43:02.760Z,8.4
2019-04-27T05:44:13.544Z,8.5
2019-04-27T05:44:48.958Z,8.5
2019-04-27T05:45:23.293Z,8.5
2019-04-27T05:46:00.909Z,8.5
2019-04-27T05:46:35.524Z,8.5
2019-04-27T05:47:43.263Z,8.6
2019-04-27T05:48:27.333Z,8.6
2019-04-27T05:48:55.164Z,8.6
2019-04-27T05:49:30.731Z,8.6
2019-04-27T05:50:45.493Z,8.7
2019-04-27T05:51:16.674Z,8.7
2019-04-27T05:51:51.269Z,8.7
2019-04-27T05:52:25.872Z,8.7
2019-04-27T05:53:00.481Z,8.7
2019-04-27T05:54:44.266Z,8.7
2019-04-27T05:55:19.230Z,8.7
2019-04-27T05:55:53.469Z,8.7
2019-04-27T05:56:28.866Z,8.7
2019-04-27T05:57:02.768Z,8.7
2019-04-27T05:58:11.895Z,8.7
2019-04-27T05:58:46.477Z,8.7
2019-04-27T05:59:21.147Z,8.7
2019-04-27T05:59:55.692Z,8.7
2019-04-27T06:00:30.307Z,8.7
2019-04-27T06:02:14.122Z,8.7
2019-04-27T06:02:48.838Z,8.7
2019-04-27T06:03:23.314Z,8.7
2019-04-27T06:03:58.820Z,8.7
2019-04-27T06:04:32.547Z,8.7
2019-04-27T06:05:41.736Z,8.7
2019-04-27T06:06:16.370Z,8.7
2019-04-27T06:06:50.950Z,8.7
2019-04-27T06:07:25.525Z,8.7
2019-04-27T06:08:00.285Z,8.7
2019-04-27T06:09:43.948Z,8.7
2019-04-27T06:10:19.781Z,8.7
2019-04-27T06:10:53.138Z,8.7
2019-04-27T06:11:28.603Z,8.8
2019-04-27T06:12:03.920Z,8.8
2019-04-27T06:13:15.762Z,8.8
2019-04-27T06:13:51.937Z,8.8
2019-04-27T06:14:29.142Z,8.9
2019-04-27T06:15:02.705Z,8.9
2019-04-27T06:16:12.960Z,8.9
2019-04-27T06:16:49.360Z,8.9
2019-04-27T06:17:22.702Z,9.0
2019-04-27T06:17:59.617Z,9.0
2019-04-27T06:19:46.450Z,9.0
2019-04-27T06:20:21.498Z,9.1
2019-04-27T06:20:56.088Z,9.1
2019-04-27T06:21:30.677Z,9.1
2019-04-27T06:23:16.595Z,9.3
2019-04-27T06:23:51.191Z,9.3
2019-04-27T06:24:26.325Z,9.3
2019-04-27T06:25:01.476Z,9.4
2019-04-27T06:26:13.269Z,9.4
2019-04-27T06:26:49.755Z,9.5
2019-04-27T06:27:23.542Z,9.5
2019-04-27T06:27:59.230Z,9.6
2019-04-27T06:28:33.765Z,9.6
2019-04-27T06:29:45.217Z,9.7
2019-04-27T06:30:20.221Z,9.7
2019-04-27T06:30:55.345Z,9.8
2019-04-27T06:31:31.003Z,9.8
2019-04-27T06:32:41.320Z,9.9
2019-04-27T06:33:27.821Z,9.9
2019-04-27T06:33:50.975Z,10.0
2019-04-27T06:34:28.716Z,10.0
2019-04-27T06:35:02.830Z,10.1
2019-04-27T06:36:12.556Z,10.2
2019-04-27T06:36:48.681Z,10.2
2019-04-27T06:37:58.662Z,10.3
2019-04-27T06:38:33.621Z,10.4
2019-04-27T06:39:45.392Z,10.5
2019-04-27T06:40:20.051Z,10.5
2019-04-27T06:40:55.620Z,10.5
2019-04-27T06:41:29.433Z,10.6
2019-04-27T06:43:18.722Z,10.7
2019-04-27T06:43:51.808Z,10.7
2019-04-27T06:44:26.423Z,10.8
2019-04-27T06:45:02.059Z,10.8
2019-04-27T06:46:13.392Z,10.8
2019-04-27T06:46:49.554Z,10.9
2019-04-27T06:47:59.616Z,10.9
2019-04-27T06:48:34.404Z,10.9
2019-04-27T06:49:45.703Z,11.0
2019-04-27T06:50:20.830Z,11.0
2019-04-27T06:51:02.529Z,11.0
2019-04-27T06:51:32.263Z,11.1
2019-04-27T06:52:41.339Z,11.1
2019-04-27T06:53:16.467Z,11.1
2019-04-27T06:53:51.088Z,11.1
2019-04-27T06:54:26.191Z,11.1
2019-04-27T06:55:00.793Z,11.2
2019-04-27T06:56:13.166Z,11.2
2019-04-27T06:56:48.923Z,11.2
2019-04-27T06:58:01.144Z,11.2
2019-04-27T06:59:11.944Z,11.3
2019-04-27T06:59:48.337Z,11.3
2019-04-27T07:00:22.203Z,11.3
2019-04-27T07:00:56.807Z,11.3
2019-04-27T07:01:31.391Z,11.3
2019-04-27T07:03:16.242Z,11.4
2019-04-27T07:03:51.393Z,11.4
2019-04-27T07:04:27.052Z,11.4
2019-04-27T07:05:02.688Z,11.5
2019-04-27T07:06:11.917Z,11.5
2019-04-27T07:06:53.739Z,11.5
2019-04-27T07:07:21.635Z,11.5
2019-04-27T07:07:56.752Z,11.5
2019-04-27T07:08:31.370Z,11.6
2019-04-27T07:09:09.090Z,11.6
2019-04-27T07:09:43.163Z,11.6
2019-04-27T07:10:18.835Z,11.6
2019-04-27T07:10:54.495Z,11.6
2019-04-27T07:11:30.180Z,11.7
2019-04-27T07:12:04.744Z,11.7
2019-04-27T07:13:13.965Z,11.8
2019-04-27T07:13:49.754Z,11.7
2019-04-27T07:14:24.200Z,11.8
2019-04-27T07:15:00.369Z,11.8
2019-04-27T07:16:12.209Z,11.8
2019-04-27T07:16:48.770Z,11.9
2019-04-27T07:17:23.516Z,11.9
2019-04-27T07:17:58.578Z,11.9
2019-04-27T07:18:33.255Z,11.9
2019-04-27T07:19:09.390Z,11.9
2019-04-27T07:19:42.490Z,12.0
2019-04-27T07:20:18.867Z,12.0
2019-04-27T07:20:53.745Z,12.0
2019-04-27T07:21:29.408Z,12.0
2019-04-27T07:22:05.037Z,12.0
2019-04-27T07:23:14.776Z,12.1
2019-04-27T07:23:49.417Z,12.1
2019-04-27T07:24:24.047Z,12.1
2019-04-27T07:24:59.237Z,12.2
2019-04-27T07:25:35.271Z,12.2
2019-04-27T07:26:11.455Z,12.2
2019-04-27T07:26:48.715Z,12.2
2019-04-27T07:27:23.289Z,12.3
2019-04-27T07:27:59.145Z,12.3
2019-04-27T07:28:32.488Z,12.3
2019-04-27T07:29:44.542Z,12.3
2019-04-27T07:30:16.298Z,12.3
2019-04-27T07:31:25.500Z,12.3
2019-04-27T07:32:00.125Z,12.4
2019-04-27T07:33:11.426Z,12.4
2019-04-27T07:33:49.018Z,12.4
2019-04-27T07:34:23.767Z,12.4
2019-04-27T07:34:59.426Z,12.4
2019-04-27T07:35:35.619Z,12.5
2019-04-27T07:36:11.926Z,12.5
2019-04-27T07:36:45.346Z,12.6
2019-04-27T07:37:56.633Z,12.7
2019-04-27T07:38:31.244Z,12.7
2019-04-27T07:39:05.842Z,12.7
2019-04-27T07:40:15.709Z,12.7
2019-04-27T07:41:25.301Z,12.8
2019-04-27T07:42:01.461Z,12.8
2019-04-27T07:43:13.306Z,12.8
2019-04-27T07:43:49.485Z,12.8
2019-04-27T07:44:25.123Z,12.8
2019-04-27T07:45:00.768Z,12.9
2019-04-27T07:45:35.388Z,12.9
2019-04-27T07:46:44.731Z,12.9
2019-04-27T07:47:53.812Z,13.0
2019-04-27T07:48:29.438Z,13.0
2019-04-27T07:49:05.090Z,13.0
2019-04-27T07:50:16.408Z,13.1
2019-04-27T07:51:31.979Z,13.1
2019-04-27T07:52:01.249Z,13.1
2019-04-27T07:53:12.032Z,13.2
2019-04-27T07:53:48.886Z,13.2
2019-04-27T07:54:24.398Z,13.2
2019-04-27T07:55:00.045Z,13.2
2019-04-27T07:55:35.676Z,13.3
2019-04-27T07:56:44.884Z,13.3
2019-04-27T07:57:55.169Z,13.3
2019-04-27T07:58:29.569Z,13.3
2019-04-27T07:59:03.318Z,13.3
2019-04-27T08:00:13.078Z,13.3
2019-04-27T08:00:49.152Z,13.3
2019-04-27T08:01:22.770Z,13.4
2019-04-27T08:01:59.139Z,13.4
2019-04-27T08:02:35.116Z,13.4
2019-04-27T08:03:45.910Z,13.5
2019-04-27T08:04:21.153Z,13.5
2019-04-27T08:04:55.644Z,13.5
2019-04-27T08:05:30.238Z,13.5
2019-04-27T08:06:04.850Z,13.5
2019-04-27T08:07:15.119Z,13.6
2019-04-27T08:07:50.751Z,13.6
2019-04-27T08:08:25.992Z,13.6
2019-04-27T08:09:01.518Z,13.6
2019-04-27T08:10:12.837Z,13.6
2019-04-27T08:11:24.131Z,13.6
2019-04-27T08:11:59.789Z,13.6
2019-04-27T08:12:35.425Z,13.6
2019-04-27T08:13:46.222Z,13.7
2019-04-27T08:14:21.328Z,13.7
2019-04-27T08:14:56.469Z,13.7
2019-04-27T08:15:31.080Z,13.7
2019-04-27T08:16:41.318Z,13.7
2019-04-27T08:17:52.241Z,13.8
2019-04-27T08:18:29.859Z,13.8
2019-04-27T08:19:04.596Z,13.8
2019-04-27T08:20:15.360Z,13.8
2019-04-27T08:20:51.414Z,13.8
2019-04-27T08:21:26.685Z,13.8
2019-04-27T08:22:02.306Z,13.8
2019-04-27T08:23:13.574Z,13.9
2019-04-27T08:23:48.817Z,13.9
2019-04-27T08:24:21.685Z,14.0
2019-04-27T08:24:56.905Z,14.0
2019-04-27T08:25:32.531Z,14.0
2019-04-27T08:26:43.852Z,14.1
2019-04-27T08:27:53.597Z,14.1
2019-04-27T08:28:28.847Z,14.1
2019-04-27T08:29:03.216Z,14.1
2019-04-27T08:30:13.462Z,14.1
2019-04-27T08:31:24.225Z,14.1
2019-04-27T08:31:59.450Z,14.2
2019-04-27T08:32:35.535Z,14.2
2019-04-27T08:33:48.465Z,14.3
2019-04-27T08:34:21.421Z,14.3
2019-04-27T08:34:56.038Z,14.3
2019-04-27T08:35:32.674Z,14.4
2019-04-27T08:36:06.325Z,14.4
2019-04-27T08:36:41.930Z,14.4
2019-04-27T08:37:53.230Z,14.4
2019-04-27T08:38:29.032Z,14.4
2019-04-27T08:39:04.570Z,14.4
2019-04-27T08:40:16.907Z,14.5
2019-04-27T08:40:51.512Z,14.5
2019-04-27T08:41:26.643Z,14.5
2019-04-27T08:42:01.752Z,14.5
2019-04-27T08:43:13.512Z,14.6
2019-04-27T08:43:48.903Z,14.6
2019-04-27T08:44:24.909Z,14.6
2019-04-27T08:45:00.530Z,14.6
2019-04-27T08:45:36.209Z,14.7
2019-04-27T08:46:45.431Z,14.7
2019-04-27T08:47:54.611Z,14.7
2019-04-27T08:48:34.511Z,14.7
2019-04-27T08:49:03.828Z,14.8
2019-04-27T08:50:15.125Z,14.8
2019-04-27T08:51:26.471Z,14.8
2019-04-27T08:52:02.100Z,14.8
2019-04-27T08:53:14.420Z,14.8
2019-04-27T08:53:50.267Z,14.9
2019-04-27T08:54:25.212Z,14.9
2019-04-27T08:55:00.434Z,14.9
2019-04-27T08:55:34.939Z,14.9
2019-04-27T08:56:46.252Z,15.0
2019-04-27T08:57:22.394Z,15.0
2019-04-27T08:57:58.717Z,15.0
2019-04-27T08:58:33.934Z,15.1
2019-04-27T08:59:42.921Z,15.2
2019-04-27T09:00:19.274Z,15.2
2019-04-27T09:00:54.215Z,15.2
2019-04-27T09:01:30.390Z,15.2
2019-04-27T09:02:06.046Z,15.3
2019-04-27T09:03:16.424Z,15.3
2019-04-27T09:03:50.921Z,15.3
2019-04-27T09:04:26.042Z,15.3
2019-04-27T09:05:00.637Z,15.3
2019-04-27T09:05:35.247Z,15.3
2019-04-27T09:06:44.561Z,15.4
2019-04-27T09:07:20.197Z,15.4
2019-04-27T09:07:55.811Z,15.4
2019-04-27T09:08:31.414Z,15.4
2019-04-27T09:09:07.158Z,15.4
2019-04-27T09:09:42.702Z,15.4
2019-04-27T09:10:18.858Z,15.5
2019-04-27T09:10:52.445Z,15.4
2019-04-27T09:11:29.006Z,15.5
2019-04-27T09:12:03.738Z,15.5
2019-04-27T09:13:13.474Z,15.5
2019-04-27T09:13:48.782Z,15.5
2019-04-27T09:14:23.918Z,15.5
2019-04-27T09:14:59.221Z,15.6
2019-04-27T09:15:34.527Z,15.6
2019-04-27T09:16:57.826Z,15.6
2019-04-27T09:17:22.528Z,15.7
2019-04-27T09:17:58.842Z,15.7
2019-04-27T09:18:32.523Z,15.7
2019-04-27T09:19:08.594Z,15.7
2019-04-27T09:19:41.446Z,15.7
2019-04-27T09:20:16.059Z,15.7
2019-04-27T09:20:50.652Z,15.7
2019-04-27T09:21:26.273Z,15.7
2019-04-27T09:22:10.294Z,15.7
2019-04-27T09:22:34.460Z,15.7
2019-04-27T09:23:44.173Z,15.7
2019-04-27T09:24:18.905Z,15.7
2019-04-27T09:24:53.928Z,15.7
2019-04-27T09:25:29.572Z,15.7
2019-04-27T09:26:04.187Z,15.7
2019-04-27T09:27:13.377Z,15.7
2019-04-27T09:28:22.593Z,15.7
2019-04-27T09:28:57.184Z,15.7
2019-04-27T09:29:31.788Z,15.7
2019-04-27T09:30:06.456Z,15.8
2019-04-27T09:30:42.040Z,15.7
2019-04-27T09:31:16.684Z,15.8
2019-04-27T09:31:52.295Z,15.8
2019-04-27T09:32:29.005Z,15.9
2019-04-27T09:33:02.564Z,15.9
2019-04-27T09:33:37.726Z,15.9
2019-04-27T09:34:12.729Z,15.8
2019-04-27T09:34:48.457Z,15.8
2019-04-27T09:35:26.270Z,15.8
2019-04-27T09:36:00.281Z,15.8
2019-04-27T09:36:37.511Z,15.8
2019-04-27T09:37:12.639Z,15.9
2019-04-27T09:37:47.263Z,15.9
2019-04-27T09:38:22.373Z,15.9
2019-04-27T09:38:57.484Z,16.0
2019-04-27T09:39:35.413Z,16.0
2019-04-27T09:40:46.572Z,16.1
2019-04-27T09:41:20.620Z,16.1
2019-04-27T09:41:57.150Z,16.1
2019-04-27T09:42:30.352Z,16.1